sensor_id;sensor_type;location;lat;lon;timestamp;temperature;humidity
37456;DHT22;23316;50.718;7.328;2023-12-28T00:00:25;22.30;37.40
37456;DHT22;23316;50.718;7.328;2023-12-28T00:02:52;22.30;37.40
37456;DHT22;23316;50.718;7.328;2023-12-28T00:05:19;22.30;37.50
37456;DHT22;23316;50.718;7.328;2023-12-28T00:07:48;22.30;37.60
37456;DHT22;23316;50.718;7.328;2023-12-28T00:10:23;22.30;37.60
37456;DHT22;23316;50.718;7.328;2023-12-28T00:12:50;22.40;37.60
37456;DHT22;23316;50.718;7.328;2023-12-28T00:15:17;22.30;37.50
37456;DHT22;23316;50.718;7.328;2023-12-28T00:17:44;22.40;37.50
37456;DHT22;23316;50.718;7.328;2023-12-28T00:20:12;22.40;37.50
37456;DHT22;23316;50.718;7.328;2023-12-28T00:22:39;22.50;37.50
37456;DHT22;23316;50.718;7.328;2023-12-28T00:25:08;22.50;37.40
37456;DHT22;23316;50.718;7.328;2023-12-28T00:27:35;22.50;37.40
37456;DHT22;23316;50.718;7.328;2023-12-28T00:30:04;22.50;37.30
37456;DHT22;23316;50.718;7.328;2023-12-28T00:32:32;22.50;37.30
37456;DHT22;23316;50.718;7.328;2023-12-28T00:34:59;22.50;37.20
37456;DHT22;23316;50.718;7.328;2023-12-28T00:37:26;22.60;37.20
37456;DHT22;23316;50.718;7.328;2023-12-28T00:39:53;22.60;37.20
37456;DHT22;23316;50.718;7.328;2023-12-28T00:42:22;22.50;37.20
37456;DHT22;23316;50.718;7.328;2023-12-28T00:44:49;22.60;37.20
37456;DHT22;23316;50.718;7.328;2023-12-28T00:47:18;22.50;37.20
37456;DHT22;23316;50.718;7.328;2023-12-28T00:49:45;22.60;37.20
37456;DHT22;23316;50.718;7.328;2023-12-28T00:52:12;22.50;37.10
37456;DHT22;23316;50.718;7.328;2023-12-28T00:54:40;22.50;37.10
37456;DHT22;23316;50.718;7.328;2023-12-28T00:57:07;22.50;37.10
37456;DHT22;23316;50.718;7.328;2023-12-28T00:59:36;22.50;37.10
37456;DHT22;23316;50.718;7.328;2023-12-28T01:02:03;22.50;37.10
37456;DHT22;23316;50.718;7.328;2023-12-28T01:04:30;22.50;37.20
37456;DHT22;23316;50.718;7.328;2023-12-28T01:06:58;22.40;37.20
37456;DHT22;23316;50.718;7.328;2023-12-28T01:09:27;22.40;37.20
37456;DHT22;23316;50.718;7.328;2023-12-28T01:11:55;22.40;37.20
37456;DHT22;23316;50.718;7.328;2023-12-28T01:14:22;22.40;37.20
37456;DHT22;23316;50.718;7.328;2023-12-28T01:16:50;22.40;37.20
37456;DHT22;23316;50.718;7.328;2023-12-28T01:19:18;22.30;37.30
37456;DHT22;23316;50.718;7.328;2023-12-28T01:21:45;22.40;37.30
37456;DHT22;23316;50.718;7.328;2023-12-28T01:24:12;22.30;37.30
37456;DHT22;23316;50.718;7.328;2023-12-28T01:26:39;22.30;37.40
37456;DHT22;23316;50.718;7.328;2023-12-28T01:29:07;22.30;37.40
37456;DHT22;23316;50.718;7.328;2023-12-28T01:31:34;22.30;37.40
37456;DHT22;23316;50.718;7.328;2023-12-28T01:34:03;22.20;37.40
37456;DHT22;23316;50.718;7.328;2023-12-28T01:36:30;22.20;37.30
37456;DHT22;23316;50.718;7.328;2023-12-28T01:38:57;22.20;37.30
37456;DHT22;23316;50.718;7.328;2023-12-28T01:41:24;22.20;37.30
37456;DHT22;23316;50.718;7.328;2023-12-28T01:43:52;22.20;37.30
37456;DHT22;23316;50.718;7.328;2023-12-28T01:46:21;22.10;37.30
37456;DHT22;23316;50.718;7.328;2023-12-28T01:48:49;22.10;37.30
37456;DHT22;23316;50.718;7.328;2023-12-28T01:51:19;22.10;37.40
37456;DHT22;23316;50.718;7.328;2023-12-28T01:53:48;22.00;37.40
37456;DHT22;23316;50.718;7.328;2023-12-28T01:56:17;22.10;37.70
37456;DHT22;23316;50.718;7.328;2023-12-28T01:58:46;22.00;37.70
37456;DHT22;23316;50.718;7.328;2023-12-28T02:01:17;22.10;37.80
37456;DHT22;23316;50.718;7.328;2023-12-28T02:03:44;22.10;37.90
37456;DHT22;23316;50.718;7.328;2023-12-28T02:06:13;22.10;37.90
37456;DHT22;23316;50.718;7.328;2023-12-28T02:08:43;22.10;37.90
37456;DHT22;23316;50.718;7.328;2023-12-28T02:11:10;22.20;37.90
37456;DHT22;23316;50.718;7.328;2023-12-28T02:13:37;22.20;37.90
37456;DHT22;23316;50.718;7.328;2023-12-28T02:16:11;22.20;37.90
37456;DHT22;23316;50.718;7.328;2023-12-28T02:18:43;22.30;37.90
37456;DHT22;23316;50.718;7.328;2023-12-28T02:21:12;22.30;37.90
37456;DHT22;23316;50.718;7.328;2023-12-28T02:23:46;22.30;37.80
37456;DHT22;23316;50.718;7.328;2023-12-28T02:26:15;22.30;37.80
37456;DHT22;23316;50.718;7.328;2023-12-28T02:28:43;22.30;37.80
37456;DHT22;23316;50.718;7.328;2023-12-28T02:31:14;22.30;37.80
37456;DHT22;23316;50.718;7.328;2023-12-28T02:33:48;22.30;37.70
37456;DHT22;23316;50.718;7.328;2023-12-28T02:36:19;22.30;37.70
37456;DHT22;23316;50.718;7.328;2023-12-28T02:38:48;22.30;37.70
37456;DHT22;23316;50.718;7.328;2023-12-28T02:41:18;22.30;37.70
37456;DHT22;23316;50.718;7.328;2023-12-28T02:43:47;22.30;37.70
37456;DHT22;23316;50.718;7.328;2023-12-28T02:46:14;22.40;37.70
37456;DHT22;23316;50.718;7.328;2023-12-28T02:48:42;22.30;37.70
37456;DHT22;23316;50.718;7.328;2023-12-28T02:51:09;22.30;37.70
37456;DHT22;23316;50.718;7.328;2023-12-28T02:53:36;22.30;37.70
37456;DHT22;23316;50.718;7.328;2023-12-28T02:56:04;22.40;37.80
37456;DHT22;23316;50.718;7.328;2023-12-28T02:58:33;22.30;37.80
37456;DHT22;23316;50.718;7.328;2023-12-28T03:01:00;22.30;37.70
37456;DHT22;23316;50.718;7.328;2023-12-28T03:03:28;22.30;37.70
37456;DHT22;23316;50.718;7.328;2023-12-28T03:05:55;22.30;37.70
37456;DHT22;23316;50.718;7.328;2023-12-28T03:08:22;22.30;37.70
37456;DHT22;23316;50.718;7.328;2023-12-28T03:10:49;22.20;37.70
37456;DHT22;23316;50.718;7.328;2023-12-28T03:13:16;22.20;37.70
37456;DHT22;23316;50.718;7.328;2023-12-28T03:15:45;22.20;37.70
37456;DHT22;23316;50.718;7.328;2023-12-28T03:18:12;22.20;37.70
37456;DHT22;23316;50.718;7.328;2023-12-28T03:20:39;22.20;37.70
37456;DHT22;23316;50.718;7.328;2023-12-28T03:23:06;22.20;37.70
37456;DHT22;23316;50.718;7.328;2023-12-28T03:25:34;22.20;37.80
37456;DHT22;23316;50.718;7.328;2023-12-28T03:28:01;22.10;37.70
37456;DHT22;23316;50.718;7.328;2023-12-28T03:30:28;22.10;37.70
37456;DHT22;23316;50.718;7.328;2023-12-28T03:32:57;22.10;37.70
37456;DHT22;23316;50.718;7.328;2023-12-28T03:35:24;22.10;37.80
37456;DHT22;23316;50.718;7.328;2023-12-28T03:37:51;22.10;37.80
37456;DHT22;23316;50.718;7.328;2023-12-28T03:40:18;22.10;37.90
37456;DHT22;23316;50.718;7.328;2023-12-28T03:42:46;22.10;38.00
37456;DHT22;23316;50.718;7.328;2023-12-28T03:45:13;22.10;38.00
37456;DHT22;23316;50.718;7.328;2023-12-28T03:47:40;22.10;38.00
37456;DHT22;23316;50.718;7.328;2023-12-28T03:50:09;22.20;38.10
37456;DHT22;23316;50.718;7.328;2023-12-28T03:52:36;22.20;38.10
37456;DHT22;23316;50.718;7.328;2023-12-28T03:55:04;22.30;38.10
37456;DHT22;23316;50.718;7.328;2023-12-28T03:57:31;22.30;38.10
37456;DHT22;23316;50.718;7.328;2023-12-28T03:59:59;22.30;38.10
37456;DHT22;23316;50.718;7.328;2023-12-28T04:02:26;22.30;38.10
37456;DHT22;23316;50.718;7.328;2023-12-28T04:04:57;22.30;38.00
37456;DHT22;23316;50.718;7.328;2023-12-28T04:07:26;22.40;38.00
37456;DHT22;23316;50.718;7.328;2023-12-28T04:09:53;22.40;38.00
37456;DHT22;23316;50.718;7.328;2023-12-28T04:12:22;22.40;38.00
37456;DHT22;23316;50.718;7.328;2023-12-28T04:14:49;22.40;38.00
37456;DHT22;23316;50.718;7.328;2023-12-28T04:17:16;22.40;37.90
37456;DHT22;23316;50.718;7.328;2023-12-28T04:19:43;22.40;37.90
37456;DHT22;23316;50.718;7.328;2023-12-28T04:22:11;22.40;37.90
37456;DHT22;23316;50.718;7.328;2023-12-28T04:24:39;22.40;37.90
37456;DHT22;23316;50.718;7.328;2023-12-28T04:27:06;22.50;37.70
37456;DHT22;23316;50.718;7.328;2023-12-28T04:29:35;22.40;37.60
37456;DHT22;23316;50.718;7.328;2023-12-28T04:32:02;22.40;37.50
37456;DHT22;23316;50.718;7.328;2023-12-28T04:34:30;22.40;37.60
37456;DHT22;23316;50.718;7.328;2023-12-28T04:36:57;22.40;37.70
37456;DHT22;23316;50.718;7.328;2023-12-28T04:39:24;22.40;37.70
37456;DHT22;23316;50.718;7.328;2023-12-28T04:41:53;22.40;37.70
37456;DHT22;23316;50.718;7.328;2023-12-28T04:44:20;22.40;37.70
37456;DHT22;23316;50.718;7.328;2023-12-28T04:46:47;22.30;37.60
37456;DHT22;23316;50.718;7.328;2023-12-28T04:49:15;22.30;37.60
37456;DHT22;23316;50.718;7.328;2023-12-28T04:51:43;22.30;37.70
37456;DHT22;23316;50.718;7.328;2023-12-28T04:54:10;22.30;37.70
37456;DHT22;23316;50.718;7.328;2023-12-28T04:56:37;22.30;37.70
37456;DHT22;23316;50.718;7.328;2023-12-28T04:59:05;22.30;37.70
37456;DHT22;23316;50.718;7.328;2023-12-28T05:01:33;22.30;37.70
37456;DHT22;23316;50.718;7.328;2023-12-28T05:04:00;22.30;37.70
37456;DHT22;23316;50.718;7.328;2023-12-28T05:06:28;22.20;37.70
37456;DHT22;23316;50.718;7.328;2023-12-28T05:08:55;22.20;37.70
37456;DHT22;23316;50.718;7.328;2023-12-28T05:11:22;22.20;37.80
37456;DHT22;23316;50.718;7.328;2023-12-28T05:13:49;22.20;37.80
37456;DHT22;23316;50.718;7.328;2023-12-28T05:16:18;22.20;37.80
37456;DHT22;23316;50.718;7.328;2023-12-28T05:18:45;22.10;37.80
37456;DHT22;23316;50.718;7.328;2023-12-28T05:21:13;22.10;37.90
37456;DHT22;23316;50.718;7.328;2023-12-28T05:23:40;22.20;38.00
37456;DHT22;23316;50.718;7.328;2023-12-28T05:26:07;22.10;38.00
37456;DHT22;23316;50.718;7.328;2023-12-28T05:28:35;22.20;38.10
37456;DHT22;23316;50.718;7.328;2023-12-28T05:31:02;22.20;38.10
37456;DHT22;23316;50.718;7.328;2023-12-28T05:33:30;22.20;38.20
37456;DHT22;23316;50.718;7.328;2023-12-28T05:35:58;22.30;38.20
37456;DHT22;23316;50.718;7.328;2023-12-28T05:38:26;22.30;38.30
37456;DHT22;23316;50.718;7.328;2023-12-28T05:40:55;22.40;38.30
37456;DHT22;23316;50.718;7.328;2023-12-28T05:43:22;22.40;38.20
37456;DHT22;23316;50.718;7.328;2023-12-28T05:45:49;22.40;38.20
37456;DHT22;23316;50.718;7.328;2023-12-28T05:48:16;22.50;38.30
37456;DHT22;23316;50.718;7.328;2023-12-28T05:50:45;22.50;38.20
37456;DHT22;23316;50.718;7.328;2023-12-28T05:53:12;22.50;38.10
37456;DHT22;23316;50.718;7.328;2023-12-28T05:55:40;22.50;38.10
37456;DHT22;23316;50.718;7.328;2023-12-28T05:58:07;22.60;38.10
37456;DHT22;23316;50.718;7.328;2023-12-28T06:00:35;22.60;38.00
37456;DHT22;23316;50.718;7.328;2023-12-28T06:03:03;22.60;37.80
37456;DHT22;23316;50.718;7.328;2023-12-28T06:05:30;22.60;37.80
37456;DHT22;23316;50.718;7.328;2023-12-28T06:07:59;22.60;37.90
37456;DHT22;23316;50.718;7.328;2023-12-28T06:10:26;22.60;37.90
37456;DHT22;23316;50.718;7.328;2023-12-28T06:12:53;22.60;38.00
37456;DHT22;23316;50.718;7.328;2023-12-28T06:15:20;22.60;38.10
37456;DHT22;23316;50.718;7.328;2023-12-28T06:17:48;22.70;38.10
37456;DHT22;23316;50.718;7.328;2023-12-28T06:20:15;22.70;38.10
37456;DHT22;23316;50.718;7.328;2023-12-28T06:22:42;22.80;38.10
37456;DHT22;23316;50.718;7.328;2023-12-28T06:25:15;22.90;38.10
37456;DHT22;23316;50.718;7.328;2023-12-28T06:27:43;22.90;38.00
37456;DHT22;23316;50.718;7.328;2023-12-28T06:30:11;22.90;37.90
37456;DHT22;23316;50.718;7.328;2023-12-28T06:32:38;23.00;37.90
37456;DHT22;23316;50.718;7.328;2023-12-28T06:35:06;23.00;37.90
37456;DHT22;23316;50.718;7.328;2023-12-28T06:37:33;23.00;37.90
37456;DHT22;23316;50.718;7.328;2023-12-28T06:40:01;23.00;37.70
37456;DHT22;23316;50.718;7.328;2023-12-28T06:42:30;23.00;37.70
37456;DHT22;23316;50.718;7.328;2023-12-28T06:44:57;23.00;37.60
37456;DHT22;23316;50.718;7.328;2023-12-28T06:47:24;23.00;37.40
37456;DHT22;23316;50.718;7.328;2023-12-28T06:49:51;23.00;37.40
37456;DHT22;23316;50.718;7.328;2023-12-28T06:52:19;23.00;37.40
37456;DHT22;23316;50.718;7.328;2023-12-28T06:54:46;23.00;37.60
37456;DHT22;23316;50.718;7.328;2023-12-28T06:57:13;23.00;37.70
37456;DHT22;23316;50.718;7.328;2023-12-28T06:59:41;23.00;37.60
37456;DHT22;23316;50.718;7.328;2023-12-28T07:02:09;23.00;37.70
37456;DHT22;23316;50.718;7.328;2023-12-28T07:04:36;23.00;37.70
37456;DHT22;23316;50.718;7.328;2023-12-28T07:07:04;23.00;37.70
37456;DHT22;23316;50.718;7.328;2023-12-28T07:09:31;22.90;37.70
37456;DHT22;23316;50.718;7.328;2023-12-28T07:11:58;22.90;37.70
37456;DHT22;23316;50.718;7.328;2023-12-28T07:14:25;22.90;37.50
37456;DHT22;23316;50.718;7.328;2023-12-28T07:16:54;22.90;37.30
37456;DHT22;23316;50.718;7.328;2023-12-28T07:19:21;22.90;37.50
37456;DHT22;23316;50.718;7.328;2023-12-28T07:21:48;22.90;37.00
37456;DHT22;23316;50.718;7.328;2023-12-28T07:24:15;22.80;36.90
37456;DHT22;23316;50.718;7.328;2023-12-28T07:26:43;22.80;37.20
37456;DHT22;23316;50.718;7.328;2023-12-28T07:29:10;22.80;37.40
37456;DHT22;23316;50.718;7.328;2023-12-28T07:31:37;22.70;37.40
37456;DHT22;23316;50.718;7.328;2023-12-28T07:34:06;22.70;37.50
37456;DHT22;23316;50.718;7.328;2023-12-28T07:36:33;22.60;37.50
37456;DHT22;23316;50.718;7.328;2023-12-28T07:39:00;22.60;37.50
37456;DHT22;23316;50.718;7.328;2023-12-28T07:41:27;22.60;37.60
37456;DHT22;23316;50.718;7.328;2023-12-28T07:43:54;22.60;37.60
37456;DHT22;23316;50.718;7.328;2023-12-28T07:46:22;22.50;37.60
37456;DHT22;23316;50.718;7.328;2023-12-28T07:48:49;22.50;37.70
37456;DHT22;23316;50.718;7.328;2023-12-28T07:51:17;22.50;37.70
37456;DHT22;23316;50.718;7.328;2023-12-28T07:53:45;22.40;37.80
37456;DHT22;23316;50.718;7.328;2023-12-28T07:56:12;22.40;37.80
37456;DHT22;23316;50.718;7.328;2023-12-28T07:58:39;22.40;37.90
37456;DHT22;23316;50.718;7.328;2023-12-28T08:01:09;22.40;37.90
37456;DHT22;23316;50.718;7.328;2023-12-28T08:03:37;22.40;37.90
37456;DHT22;23316;50.718;7.328;2023-12-28T08:06:05;22.30;37.90
37456;DHT22;23316;50.718;7.328;2023-12-28T08:08:34;22.30;38.00
37456;DHT22;23316;50.718;7.328;2023-12-28T08:11:03;22.40;38.10
37456;DHT22;23316;50.718;7.328;2023-12-28T08:13:31;22.30;38.10
37456;DHT22;23316;50.718;7.328;2023-12-28T08:15:58;22.30;38.20
37456;DHT22;23316;50.718;7.328;2023-12-28T08:18:26;22.30;38.20
37456;DHT22;23316;50.718;7.328;2023-12-28T08:20:53;22.40;38.30
37456;DHT22;23316;50.718;7.328;2023-12-28T08:23:21;22.40;38.30
37456;DHT22;23316;50.718;7.328;2023-12-28T08:25:49;22.40;38.40
37456;DHT22;23316;50.718;7.328;2023-12-28T08:28:17;22.40;38.40
37456;DHT22;23316;50.718;7.328;2023-12-28T08:30:44;22.50;38.40
37456;DHT22;23316;50.718;7.328;2023-12-28T08:33:11;22.50;38.40
37456;DHT22;23316;50.718;7.328;2023-12-28T08:35:38;22.50;38.40
37456;DHT22;23316;50.718;7.328;2023-12-28T08:38:06;22.60;38.50
37456;DHT22;23316;50.718;7.328;2023-12-28T08:40:33;22.60;38.50
37456;DHT22;23316;50.718;7.328;2023-12-28T08:43:02;22.70;38.50
37456;DHT22;23316;50.718;7.328;2023-12-28T08:45:29;22.80;38.50
37456;DHT22;23316;50.718;7.328;2023-12-28T08:47:56;22.90;38.30
37456;DHT22;23316;50.718;7.328;2023-12-28T08:50:24;22.90;38.30
37456;DHT22;23316;50.718;7.328;2023-12-28T08:52:51;23.00;38.20
37456;DHT22;23316;50.718;7.328;2023-12-28T08:55:18;23.00;38.20
37456;DHT22;23316;50.718;7.328;2023-12-28T08:57:46;23.00;38.20
37456;DHT22;23316;50.718;7.328;2023-12-28T09:00:15;23.10;38.10
37456;DHT22;23316;50.718;7.328;2023-12-28T09:02:42;23.10;38.00
37456;DHT22;23316;50.718;7.328;2023-12-28T09:05:10;23.20;38.10
37456;DHT22;23316;50.718;7.328;2023-12-28T09:07:37;23.20;38.00
37456;DHT22;23316;50.718;7.328;2023-12-28T09:10:09;23.20;38.10
37456;DHT22;23316;50.718;7.328;2023-12-28T09:12:37;23.20;38.10
37456;DHT22;23316;50.718;7.328;2023-12-28T09:15:06;23.20;37.90
37456;DHT22;23316;50.718;7.328;2023-12-28T09:17:34;23.20;37.50
37456;DHT22;23316;50.718;7.328;2023-12-28T09:20:02;23.20;37.30
37456;DHT22;23316;50.718;7.328;2023-12-28T09:22:32;23.20;37.30
37456;DHT22;23316;50.718;7.328;2023-12-28T09:25:00;23.20;37.20
37456;DHT22;23316;50.718;7.328;2023-12-28T09:27:27;23.20;37.20
37456;DHT22;23316;50.718;7.328;2023-12-28T09:29:54;23.10;37.10
37456;DHT22;23316;50.718;7.328;2023-12-28T09:32:21;23.10;37.10
37456;DHT22;23316;50.718;7.328;2023-12-28T09:34:50;23.10;37.00
37456;DHT22;23316;50.718;7.328;2023-12-28T09:37:17;23.10;36.90
37456;DHT22;23316;50.718;7.328;2023-12-28T09:39:46;23.00;37.00
37456;DHT22;23316;50.718;7.328;2023-12-28T09:42:17;23.00;37.20
37456;DHT22;23316;50.718;7.328;2023-12-28T09:44:51;23.00;37.10
37456;DHT22;23316;50.718;7.328;2023-12-28T09:47:19;22.90;37.00
37456;DHT22;23316;50.718;7.328;2023-12-28T09:49:47;22.90;37.00
37456;DHT22;23316;50.718;7.328;2023-12-28T09:52:15;22.90;37.10
37456;DHT22;23316;50.718;7.328;2023-12-28T09:54:43;22.80;37.10
37456;DHT22;23316;50.718;7.328;2023-12-28T09:57:10;22.80;37.10
37456;DHT22;23316;50.718;7.328;2023-12-28T09:59:39;22.70;37.00
37456;DHT22;23316;50.718;7.328;2023-12-28T10:02:07;22.80;37.10
37456;DHT22;23316;50.718;7.328;2023-12-28T10:04:34;22.70;37.10
37456;DHT22;23316;50.718;7.328;2023-12-28T10:07:03;22.60;37.00
37456;DHT22;23316;50.718;7.328;2023-12-28T10:09:32;22.60;37.10
37456;DHT22;23316;50.718;7.328;2023-12-28T10:11:59;22.60;37.10
37456;DHT22;23316;50.718;7.328;2023-12-28T10:14:26;22.60;37.20
37456;DHT22;23316;50.718;7.328;2023-12-28T10:16:54;22.50;37.20
37456;DHT22;23316;50.718;7.328;2023-12-28T10:19:21;22.60;37.30
37456;DHT22;23316;50.718;7.328;2023-12-28T10:21:49;22.60;37.30
37456;DHT22;23316;50.718;7.328;2023-12-28T10:24:16;22.60;37.30
37456;DHT22;23316;50.718;7.328;2023-12-28T10:26:45;22.60;37.30
37456;DHT22;23316;50.718;7.328;2023-12-28T10:29:12;22.70;37.30
37456;DHT22;23316;50.718;7.328;2023-12-28T10:31:41;22.70;37.20
37456;DHT22;23316;50.718;7.328;2023-12-28T10:34:09;22.70;37.20
37456;DHT22;23316;50.718;7.328;2023-12-28T10:36:37;22.70;37.10
37456;DHT22;23316;50.718;7.328;2023-12-28T10:39:09;22.70;37.00
37456;DHT22;23316;50.718;7.328;2023-12-28T10:41:37;22.70;37.50
37456;DHT22;23316;50.718;7.328;2023-12-28T10:44:07;22.70;37.20
37456;DHT22;23316;50.718;7.328;2023-12-28T10:46:40;22.70;37.50
37456;DHT22;23316;50.718;7.328;2023-12-28T10:49:10;22.70;37.70
37456;DHT22;23316;50.718;7.328;2023-12-28T10:51:40;22.70;37.70
37456;DHT22;23316;50.718;7.328;2023-12-28T10:54:20;22.80;37.90
37456;DHT22;23316;50.718;7.328;2023-12-28T10:56:56;22.70;37.90
37456;DHT22;23316;50.718;7.328;2023-12-28T10:59:35;22.80;37.80
37456;DHT22;23316;50.718;7.328;2023-12-28T11:02:09;22.80;38.30
37456;DHT22;23316;50.718;7.328;2023-12-28T11:04:41;22.80;37.90
37456;DHT22;23316;50.718;7.328;2023-12-28T11:07:10;22.70;37.80
37456;DHT22;23316;50.718;7.328;2023-12-28T11:09:41;22.70;37.80
37456;DHT22;23316;50.718;7.328;2023-12-28T11:12:08;22.70;37.90
37456;DHT22;23316;50.718;7.328;2023-12-28T11:14:38;22.70;38.00
37456;DHT22;23316;50.718;7.328;2023-12-28T11:17:06;22.70;38.00
37456;DHT22;23316;50.718;7.328;2023-12-28T11:19:34;22.70;38.00
37456;DHT22;23316;50.718;7.328;2023-12-28T11:22:03;22.60;38.00
37456;DHT22;23316;50.718;7.328;2023-12-28T11:24:31;22.60;38.00
37456;DHT22;23316;50.718;7.328;2023-12-28T11:27:02;22.60;38.10
37456;DHT22;23316;50.718;7.328;2023-12-28T11:29:32;22.60;38.30
37456;DHT22;23316;50.718;7.328;2023-12-28T11:32:01;22.60;38.20
37456;DHT22;23316;50.718;7.328;2023-12-28T11:34:31;22.60;38.20
37456;DHT22;23316;50.718;7.328;2023-12-28T11:37:02;22.50;38.10
37456;DHT22;23316;50.718;7.328;2023-12-28T11:39:33;22.50;38.20
37456;DHT22;23316;50.718;7.328;2023-12-28T11:42:01;22.50;38.40
37456;DHT22;23316;50.718;7.328;2023-12-28T11:44:30;22.50;38.40
37456;DHT22;23316;50.718;7.328;2023-12-28T11:46:58;22.50;38.40
37456;DHT22;23316;50.718;7.328;2023-12-28T11:49:26;22.40;38.40
37456;DHT22;23316;50.718;7.328;2023-12-28T11:51:56;22.40;38.40
37456;DHT22;23316;50.718;7.328;2023-12-28T11:54:24;22.40;38.50
37456;DHT22;23316;50.718;7.328;2023-12-28T11:56:52;22.40;38.60
37456;DHT22;23316;50.718;7.328;2023-12-28T11:59:19;22.40;38.70
37456;DHT22;23316;50.718;7.328;2023-12-28T12:01:50;22.30;38.70
37456;DHT22;23316;50.718;7.328;2023-12-28T12:04:18;22.30;38.80
37456;DHT22;23316;50.718;7.328;2023-12-28T12:06:46;22.30;38.70
37456;DHT22;23316;50.718;7.328;2023-12-28T12:09:14;22.30;38.90
37456;DHT22;23316;50.718;7.328;2023-12-28T12:11:41;22.30;38.90
37456;DHT22;23316;50.718;7.328;2023-12-28T12:14:09;22.40;38.90
37456;DHT22;23316;50.718;7.328;2023-12-28T12:16:37;22.30;38.80
37456;DHT22;23316;50.718;7.328;2023-12-28T12:19:04;22.40;38.80
37456;DHT22;23316;50.718;7.328;2023-12-28T12:21:32;22.40;38.80
37456;DHT22;23316;50.718;7.328;2023-12-28T12:24:01;22.40;38.90
37456;DHT22;23316;50.718;7.328;2023-12-28T12:26:29;22.40;39.00
37456;DHT22;23316;50.718;7.328;2023-12-28T12:28:57;22.50;38.90
37456;DHT22;23316;50.718;7.328;2023-12-28T12:31:24;22.50;38.80
37456;DHT22;23316;50.718;7.328;2023-12-28T12:33:52;22.50;38.80
37456;DHT22;23316;50.718;7.328;2023-12-28T12:36:20;22.60;38.90
37456;DHT22;23316;50.718;7.328;2023-12-28T12:38:47;22.60;38.90
37456;DHT22;23316;50.718;7.328;2023-12-28T12:41:16;22.60;38.90
37456;DHT22;23316;50.718;7.328;2023-12-28T12:43:45;22.60;38.80
37456;DHT22;23316;50.718;7.328;2023-12-28T12:46:12;22.60;38.80
37456;DHT22;23316;50.718;7.328;2023-12-28T12:48:40;22.60;38.80
37456;DHT22;23316;50.718;7.328;2023-12-28T12:51:07;22.60;38.80
37456;DHT22;23316;50.718;7.328;2023-12-28T12:53:36;22.60;38.80
37456;DHT22;23316;50.718;7.328;2023-12-28T12:56:03;22.60;38.80
37456;DHT22;23316;50.718;7.328;2023-12-28T12:58:33;22.60;38.90
37456;DHT22;23316;50.718;7.328;2023-12-28T13:01:00;22.60;38.80
37456;DHT22;23316;50.718;7.328;2023-12-28T13:03:27;22.60;38.80
37456;DHT22;23316;50.718;7.328;2023-12-28T13:05:56;22.60;38.80
37456;DHT22;23316;50.718;7.328;2023-12-28T13:08:23;22.60;38.80
37456;DHT22;23316;50.718;7.328;2023-12-28T13:10:51;22.60;38.80
37456;DHT22;23316;50.718;7.328;2023-12-28T13:13:18;22.60;38.80
37456;DHT22;23316;50.718;7.328;2023-12-28T13:15:47;22.60;38.80
37456;DHT22;23316;50.718;7.328;2023-12-28T13:18:14;22.60;38.90
37456;DHT22;23316;50.718;7.328;2023-12-28T13:20:42;22.60;39.00
37456;DHT22;23316;50.718;7.328;2023-12-28T13:23:10;22.60;39.00
37456;DHT22;23316;50.718;7.328;2023-12-28T13:25:38;22.60;39.00
37456;DHT22;23316;50.718;7.328;2023-12-28T13:28:06;22.60;38.90
37456;DHT22;23316;50.718;7.328;2023-12-28T13:30:33;22.60;38.90
37456;DHT22;23316;50.718;7.328;2023-12-28T13:33:04;22.60;38.90
37456;DHT22;23316;50.718;7.328;2023-12-28T13:35:32;22.60;38.90
37456;DHT22;23316;50.718;7.328;2023-12-28T13:38:00;22.50;38.80
37456;DHT22;23316;50.718;7.328;2023-12-28T13:40:28;22.50;38.80
37456;DHT22;23316;50.718;7.328;2023-12-28T13:42:57;22.50;38.80
37456;DHT22;23316;50.718;7.328;2023-12-28T13:45:24;22.50;38.80
37456;DHT22;23316;50.718;7.328;2023-12-28T13:47:51;22.50;38.80
37456;DHT22;23316;50.718;7.328;2023-12-28T13:50:20;22.40;38.80
37456;DHT22;23316;50.718;7.328;2023-12-28T13:52:47;22.40;38.80
37456;DHT22;23316;50.718;7.328;2023-12-28T13:55:14;22.40;38.80
37456;DHT22;23316;50.718;7.328;2023-12-28T13:57:41;22.40;38.80
37456;DHT22;23316;50.718;7.328;2023-12-28T14:00:10;22.30;38.80
37456;DHT22;23316;50.718;7.328;2023-12-28T14:02:37;22.30;38.90
37456;DHT22;23316;50.718;7.328;2023-12-28T14:05:06;22.30;38.90
37456;DHT22;23316;50.718;7.328;2023-12-28T14:07:35;22.30;39.00
37456;DHT22;23316;50.718;7.328;2023-12-28T14:10:02;22.30;39.00
37456;DHT22;23316;50.718;7.328;2023-12-28T14:12:29;22.40;39.00
37456;DHT22;23316;50.718;7.328;2023-12-28T14:14:57;22.40;38.90
37456;DHT22;23316;50.718;7.328;2023-12-28T14:17:24;22.50;38.90
37456;DHT22;23316;50.718;7.328;2023-12-28T14:26:41;22.50;38.20
37456;DHT22;23316;50.718;7.328;2023-12-28T14:29:09;22.50;38.20
37456;DHT22;23316;50.718;7.328;2023-12-28T14:31:37;22.50;38.20
37456;DHT22;23316;50.718;7.328;2023-12-28T14:34:05;22.50;38.20
37456;DHT22;23316;50.718;7.328;2023-12-28T14:36:34;22.50;38.20
37456;DHT22;23316;50.718;7.328;2023-12-28T14:39:03;22.50;38.30
37456;DHT22;23316;50.718;7.328;2023-12-28T14:41:31;22.50;38.40
37456;DHT22;23316;50.718;7.328;2023-12-28T14:44:00;22.50;38.30
37456;DHT22;23316;50.718;7.328;2023-12-28T14:46:27;22.50;38.30
37456;DHT22;23316;50.718;7.328;2023-12-28T14:48:55;22.40;38.30
37456;DHT22;23316;50.718;7.328;2023-12-28T14:51:22;22.40;38.40
37456;DHT22;23316;50.718;7.328;2023-12-28T14:53:50;22.40;38.40
37456;DHT22;23316;50.718;7.328;2023-12-28T14:56:17;22.40;38.50
37456;DHT22;23316;50.718;7.328;2023-12-28T14:58:44;22.50;38.60
37456;DHT22;23316;50.718;7.328;2023-12-28T15:01:15;22.40;38.60
37456;DHT22;23316;50.718;7.328;2023-12-28T15:03:42;22.40;38.60
37456;DHT22;23316;50.718;7.328;2023-12-28T15:06:10;22.40;38.60
37456;DHT22;23316;50.718;7.328;2023-12-28T15:08:37;22.40;38.70
37456;DHT22;23316;50.718;7.328;2023-12-28T15:11:05;22.30;38.60
37456;DHT22;23316;50.718;7.328;2023-12-28T15:13:34;22.30;38.70
37456;DHT22;23316;50.718;7.328;2023-12-28T15:16:01;22.30;38.70
37456;DHT22;23316;50.718;7.328;2023-12-28T15:18:31;22.30;38.70
37456;DHT22;23316;50.718;7.328;2023-12-28T15:20:58;22.30;38.80
37456;DHT22;23316;50.718;7.328;2023-12-28T15:23:27;22.30;38.80
37456;DHT22;23316;50.718;7.328;2023-12-28T15:25:55;22.30;38.80
37456;DHT22;23316;50.718;7.328;2023-12-28T15:28:22;22.30;38.80
37456;DHT22;23316;50.718;7.328;2023-12-28T15:30:49;22.20;38.80
37456;DHT22;23316;50.718;7.328;2023-12-28T15:33:17;22.20;38.80
37456;DHT22;23316;50.718;7.328;2023-12-28T15:35:45;22.20;38.80
37456;DHT22;23316;50.718;7.328;2023-12-28T15:38:12;22.20;38.90
37456;DHT22;23316;50.718;7.328;2023-12-28T15:40:41;22.20;39.00